Time;durP1;ratioP1;P1;durP2;ratioP2;P2;SDS_P1;SDS_P2;PMS_P1;PMS_P2;Temp;Humidity;BMP_temperature;BMP_pressure;BME280_temperature;BME280_humidity;BME280_pressure;Samples;Min_cycle;Max_cycle;Signal;HPM_P1;HPM_P2
2022/11/17 00:00:36;;;;;;;13.63;8.48;;;5.90;99.90;;;4.09;100.00;99257.41;4833659;29;20117;-76
2022/11/17 00:03:01;;;;;;;14.10;9.23;;;5.80;99.90;;;4.09;100.00;99259.25;4819737;29;20494;-76
2022/11/17 00:05:27;;;;;;;15.32;9.48;;;5.80;99.90;;;4.13;100.00;99264.06;4819880;29;20041;-76
2022/11/17 00:07:53;;;;;;;14.80;8.65;;;5.80;99.90;;;4.10;100.00;99264.47;4823014;29;20042;-76
2022/11/17 00:10:19;;;;;;;14.82;8.98;;;5.80;99.90;;;4.10;100.00;99272.56;4819571;29;20038;-75
2022/11/17 00:15:29;;;;;;;15.55;9.23;;;5.80;99.90;;;4.04;100.00;99254.50;4819239;29;20117;-76
2022/11/17 00:23:25;;;;;;;18.85;9.32;;;5.80;99.90;;;4.06;100.00;99251.59;4824962;29;20038;-76
2022/11/17 00:25:51;;;;;;;18.02;10.27;;;5.80;99.90;;;4.00;100.00;99242.47;4824364;29;20064;-75
2022/11/17 00:28:17;;;;;;;19.38;10.50;;;5.80;99.90;;;3.98;100.00;99231.06;4830532;29;20050;-75
2022/11/17 00:36:13;;;;;;;15.63;9.32;;;5.70;99.90;;;3.96;100.00;99219.63;4819053;29;20074;-75
2022/11/17 00:38:39;;;;;;;16.50;9.80;;;5.70;99.90;;;3.98;100.00;99220.28;4818357;29;20117;-74
2022/11/17 00:41:05;;;;;;;16.05;9.93;;;5.70;99.90;;;3.97;100.00;99216.72;4819245;29;20038;-76
2022/11/17 00:43:30;;;;;;;16.02;9.82;;;5.70;99.90;;;3.94;100.00;99217.16;4819084;29;20447;-75
2022/11/17 00:45:56;;;;;;;15.25;9.93;;;5.70;99.90;;;3.92;100.00;99197.63;4819179;29;20046;-75
2022/11/17 00:48:22;;;;;;;16.13;10.00;;;5.70;99.90;;;3.96;100.00;99198.88;4819313;29;20041;-75
2022/11/17 00:50:47;;;;;;;15.75;9.50;;;5.70;99.90;;;3.93;100.00;99207.38;4818956;29;20494;-75
2022/11/17 00:53:13;;;;;;;15.52;9.35;;;5.70;99.90;;;3.95;100.00;99202.63;4819272;29;20050;-74
2022/11/17 00:55:39;;;;;;;16.63;10.30;;;5.70;99.90;;;3.93;100.00;99193.91;4819141;29;20061;-75
2022/11/17 00:58:05;;;;;;;15.20;9.55;;;5.70;99.90;;;3.98;100.00;99195.97;4818923;29;20079;-75
2022/11/17 01:00:30;;;;;;;16.80;10.07;;;5.70;99.90;;;3.95;100.00;99177.47;4819459;29;20034;-75
2022/11/17 01:02:56;;;;;;;17.05;10.77;;;5.70;99.90;;;3.95;100.00;99185.56;4818618;29;20037;-74
2022/11/17 01:05:22;;;;;;;17.30;10.23;;;5.70;99.90;;;3.91;100.00;99165.44;4818872;29;20556;-74
2022/11/17 01:07:47;;;;;;;17.05;9.93;;;5.70;99.90;;;3.92;100.00;99169.81;4818844;29;20045;-75
2022/11/17 01:10:13;;;;;;;17.60;10.32;;;5.60;99.90;;;3.85;100.00;99164.44;4818767;29;20030;-75
2022/11/17 01:12:39;;;;;;;17.73;10.73;;;5.60;99.90;;;3.80;100.00;99158.81;4818797;29;20031;-75
2022/11/17 01:15:05;;;;;;;20.23;10.90;;;5.60;99.90;;;3.72;100.00;99158.00;4819195;29;20057;-76
2022/11/17 01:17:31;;;;;;;16.25;10.05;;;5.50;99.90;;;3.77;100.00;99164.63;4819115;29;20043;-75
2022/11/17 01:19:57;;;;;;;17.83;9.98;;;5.50;99.90;;;3.77;100.00;99168.19;4818347;29;20060;-75
2022/11/17 01:22:22;;;;;;;15.25;9.27;;;5.50;99.90;;;3.76;100.00;99166.50;4823657;29;20026;-74
2022/11/17 01:24:48;;;;;;;18.08;9.82;;;5.50;99.90;;;3.72;100.00;99165.28;4818642;29;20436;-75
2022/11/17 01:27:14;;;;;;;18.23;9.68;;;5.50;99.90;;;3.70;100.00;99160.06;4818346;29;20542;-74
2022/11/17 01:29:39;;;;;;;16.48;10.45;;;5.50;99.90;;;3.71;100.00;99174.38;4818650;29;20037;-75
2022/11/17 01:32:05;;;;;;;15.95;9.15;;;5.50;99.90;;;3.67;100.00;99167.75;4818697;29;20100;-75
2022/11/17 01:34:31;;;;;;;16.92;9.80;;;5.40;99.90;;;3.68;100.00;99147.81;4817986;29;20727;-75
2022/11/17 01:39:41;;;;;;;17.00;10.15;;;5.40;99.90;;;3.63;100.00;99128.75;4818334;29;20052;-74
2022/11/17 01:42:24;;;;;;;17.73;10.27;;;5.40;99.90;;;3.64;100.00;99143.88;4818474;29;20439;-75
2022/11/17 01:45:18;;;;;;;17.20;10.68;;;5.40;99.90;;;3.64;100.00;99125.00;4818343;29;20033;-76
2022/11/17 01:48:01;;;;;;;14.38;8.68;;;5.40;99.90;;;3.63;100.00;99135.00;4818225;29;20086;-75
2022/11/17 01:50:46;;;;;;;13.57;8.75;;;5.30;99.90;;;3.62;100.00;99130.63;4819289;29;20065;-75
2022/11/17 01:53:16;;;;;;;14.85;8.13;;;5.40;99.90;;;3.64;100.00;99135.81;4821350;29;20070;-74
2022/11/17 01:56:00;;;;;;;12.80;7.50;;;5.40;99.90;;;3.62;100.00;99130.63;4821567;29;20052;-75
2022/11/17 01:58:35;;;;;;;12.32;7.55;;;5.40;99.90;;;3.57;100.00;99104.28;4821469;29;20517;-74
2022/11/17 02:01:01;;;;;;;12.43;7.35;;;5.30;99.90;;;3.61;100.00;99118.19;4821425;29;20522;-75
2022/11/17 02:03:33;;;;;;;14.20;7.95;;;5.30;99.90;;;3.64;100.00;99103.44;4821572;29;20030;-75
2022/11/17 02:06:11;;;;;;;12.32;7.38;;;5.40;99.90;;;3.62;100.00;99098.25;4821388;29;20100;-75
2022/11/17 02:08:41;;;;;;;12.32;7.43;;;5.30;99.90;;;3.63;100.00;99091.84;4821159;29;20147;-76
2022/11/17 02:11:18;;;;;;;13.13;7.72;;;5.30;99.90;;;3.62;100.00;99083.94;4832584;29;20039;-76
2022/11/17 02:13:45;;;;;;;13.40;7.95;;;5.40;99.90;;;3.63;100.00;99091.00;4821100;29;20045;-76
2022/11/17 02:16:13;;;;;;;13.85;7.82;;;5.40;99.90;;;3.58;100.00;99089.75;4823547;29;20061;-77
2022/11/17 02:18:41;;;;;;;12.95;7.88;;;5.40;99.90;;;3.63;100.00;99104.47;4829134;29;20038;-75
2022/11/17 02:21:35;;;;;;;12.15;7.72;;;5.40;99.90;;;3.66;100.00;99095.97;4821205;29;20042;-75
2022/11/17 02:24:30;;;;;;;14.45;8.25;;;5.40;99.90;;;3.56;100.00;99077.50;4821391;29;20039;-75
2022/11/17 02:27:29;;;;;;;13.02;7.43;;;5.40;99.90;;;3.67;100.00;99093.06;4821708;29;20090;-77
2022/11/17 02:30:12;;;;;;;13.73;8.20;;;5.40;99.90;;;3.63;100.00;99094.53;4821071;29;20042;-76
2022/11/17 02:33:06;;;;;;;15.48;8.90;;;5.40;99.90;;;3.64;100.00;99095.34;4820876;29;20042;-76
2022/11/17 02:36:11;;;;;;;13.93;8.23;;;5.40;99.90;;;3.66;100.00;99082.47;4820917;29;20133;-76
2022/11/17 02:38:49;;;;;;;13.48;8.45;;;5.40;99.90;;;3.65;100.00;99072.72;4821083;29;20634;-76
2022/11/17 02:41:25;;;;;;;14.90;8.48;;;5.40;99.90;;;3.64;100.00;99061.13;4821462;29;20383;-76
2022/11/17 02:44:19;;;;;;;12.23;7.30;;;5.40;99.90;;;3.63;100.00;99056.78;4821096;29;20098;-76
2022/11/17 02:47:03;;;;;;;12.80;8.00;;;5.40;99.90;;;3.59;100.00;99056.34;4821232;29;20329;-75
2022/11/17 02:49:37;;;;;;;14.32;8.57;;;5.40;99.90;;;3.60;100.00;99039.13;4820870;29;20475;-76
2022/11/17 02:52:06;;;;;;;15.15;8.35;;;5.40;99.90;;;3.62;100.00;99040.78;4820847;29;20488;-75
2022/11/17 02:54:32;;;;;;;13.68;8.73;;;5.40;99.90;;;3.62;100.00;99046.19;4820494;29;20038;-75
2022/11/17 02:56:58;;;;;;;13.43;8.30;;;5.40;99.90;;;3.58;100.00;99032.28;4835215;29;20394;-76
2022/11/17 02:59:36;;;;;;;13.88;8.15;;;5.40;99.90;;;3.64;100.00;99036.00;4820529;29;20034;-76
2022/11/17 03:02:32;;;;;;;13.48;8.23;;;5.40;99.90;;;3.62;100.00;99035.38;4819629;29;20034;-76
2022/11/17 03:05:26;;;;;;;13.05;7.63;;;5.30;99.90;;;3.57;100.00;99015.28;4820936;29;20121;-76
2022/11/17 03:08:10;;;;;;;15.43;8.10;;;5.30;99.90;;;3.59;100.00;99025.88;4820471;29;20030;-75
2022/11/17 03:11:03;;;;;;;15.15;8.68;;;5.30;99.90;;;3.56;100.00;99002.00;4821666;29;20046;-75
2022/11/17 03:14:00;;;;;;;13.98;8.18;;;5.30;99.90;;;3.55;100.00;99001.19;4820313;29;20030;-75
2022/11/17 03:17:00;;;;;;;14.55;8.45;;;5.30;99.90;;;3.48;100.00;98981.50;4819947;29;20046;-76
2022/11/17 03:19:36;;;;;;;15.73;9.07;;;5.30;99.90;;;3.51;100.00;98982.94;4820476;29;20677;-76
2022/11/17 03:22:31;;;;;;;15.38;8.77;;;5.30;99.90;;;3.56;100.00;98988.50;4820020;29;20041;-75
2022/11/17 03:25:05;;;;;;;17.10;8.93;;;5.30;99.90;;;3.47;100.00;98981.69;4820555;29;20035;-76
2022/11/17 03:27:38;;;;;;;16.75;9.15;;;5.30;99.90;;;3.49;100.00;98995.78;4819875;29;20234;-76
2022/11/17 03:30:08;;;;;;;15.77;9.57;;;5.20;99.90;;;3.47;100.00;98966.38;4820399;29;20043;-76
2022/11/17 03:32:43;;;;;;;16.02;9.52;;;5.20;99.90;;;3.47;100.00;98979.00;4820194;29;20105;-75
2022/11/17 03:35:16;;;;;;;15.73;9.20;;;5.20;99.90;;;3.46;100.00;98980.88;4819748;29;20075;-76
2022/11/17 03:37:54;;;;;;;16.70;9.60;;;5.20;99.90;;;3.43;100.00;98955.16;4819905;29;20398;-75
2022/11/17 03:40:26;;;;;;;19.48;10.15;;;5.20;99.90;;;3.41;100.00;98973.41;4819986;29;20405;-75
2022/11/17 03:43:00;;;;;;;17.35;10.88;;;5.20;99.90;;;3.45;100.00;98973.84;4819994;29;20057;-75
2022/11/17 03:45:33;;;;;;;18.55;11.25;;;5.20;99.90;;;3.43;100.00;98968.66;4820554;29;20038;-76
2022/11/17 03:48:20;;;;;;;21.08;11.23;;;5.20;99.90;;;3.51;100.00;98972.97;4819923;29;20094;-75
2022/11/17 03:51:14;;;;;;;18.02;10.73;;;5.20;99.90;;;3.43;100.00;98954.31;4819811;29;20116;-75
2022/11/17 03:53:41;;;;;;;18.27;10.70;;;5.30;99.90;;;3.50;100.00;98962.41;4819523;29;20434;-76
2022/11/17 03:56:41;;;;;;;18.90;10.27;;;5.30;99.90;;;3.56;100.00;98975.88;4819708;29;20035;-75
2022/11/17 03:59:18;;;;;;;16.52;9.55;;;5.30;99.90;;;3.55;100.00;98974.22;4819854;29;20030;-75
2022/11/17 04:01:44;;;;;;;15.05;9.93;;;5.30;99.90;;;3.51;100.00;98969.44;4819424;29;20122;-75
2022/11/17 04:04:21;;;;;;;16.98;10.35;;;5.20;99.90;;;3.50;100.00;98967.78;4819492;29;20053;-75
2022/11/17 04:06:53;;;;;;;18.08;10.68;;;5.20;99.90;;;3.52;100.00;98955.75;4819671;29;20046;-76
2022/11/17 04:09:19;;;;;;;18.50;10.23;;;5.20;99.90;;;3.43;100.00;98946.22;4833333;29;20041;-76
2022/11/17 04:17:14;;;;;;;19.42;10.25;;;5.30;99.90;;;3.52;100.00;98954.94;4819707;29;20121;-76
2022/11/17 04:19:39;;;;;;;17.95;10.00;;;5.30;99.90;;;3.45;100.00;98946.88;4817814;29;21199;-75
2022/11/17 04:22:05;;;;;;;17.77;10.13;;;5.20;99.90;;;3.44;100.00;98947.88;4819516;29;20482;-76
2022/11/17 04:24:31;;;;;;;17.40;10.85;;;5.20;99.90;;;3.47;100.00;98949.34;4819199;29;20038;-75
2022/11/17 04:29:57;;;;;;;19.10;10.88;;;5.20;99.90;;;3.43;100.00;98935.44;4828709;29;20038;-76
2022/11/17 04:32:23;;;;;;;19.02;10.35;;;5.20;99.90;;;3.40;100.00;98938.56;4823013;29;20047;-76
2022/11/17 04:34:49;;;;;;;18.75;11.07;;;5.10;99.90;;;3.38;100.00;98932.56;4818950;29;20062;-76
2022/11/17 04:37:17;;;;;;;18.67;9.98;;;5.20;99.90;;;3.39;100.00;98923.44;4819079;29;20398;-75
2022/11/17 04:39:44;;;;;;;16.88;10.23;;;5.10;99.90;;;3.38;100.00;98928.00;4819155;29;20402;-75
2022/11/17 04:42:10;;;;;;;20.05;11.60;;;5.10;99.90;;;3.34;100.00;98917.84;4819316;29;20456;-76
2022/11/17 04:44:36;;;;;;;17.48;10.93;;;5.10;99.90;;;3.38;100.00;98916.38;4819001;29;20069;-77
2022/11/17 04:47:02;;;;;;;19.73;11.52;;;5.10;99.90;;;3.39;100.00;98904.56;4817424;29;20541;-76
2022/11/17 04:49:30;;;;;;;18.77;11.20;;;5.10;99.90;;;3.38;100.00;98913.69;4819093;29;20044;-75
2022/11/17 04:51:56;;;;;;;;;;;5.10;99.90;;;3.33;100.00;98908.13;4819906;29;20034;-76
2022/11/17 04:54:24;;;;;;;18.27;10.70;;;5.10;99.90;;;3.37;100.00;98920.97;4819407;29;19940;-76
2022/11/17 04:56:51;;;;;;;19.23;12.10;;;5.10;99.90;;;3.32;100.00;98912.69;4819754;29;20470;-76
2022/11/17 04:59:17;;;;;;;17.70;10.27;;;5.10;99.90;;;3.33;100.00;98918.91;4830470;29;20096;-75
2022/11/17 05:01:43;;;;;;;18.48;11.00;;;5.10;99.90;;;3.31;100.00;98911.00;4819214;29;20473;-75
2022/11/17 05:04:12;;;;;;;19.40;10.90;;;5.10;99.90;;;3.27;100.00;98910.63;4819635;29;20397;-77
2022/11/17 05:06:43;;;;;;;18.45;10.45;;;5.00;99.90;;;3.28;100.00;98909.59;4819283;29;20041;-76
2022/11/17 05:09:16;;;;;;;16.77;9.52;;;5.00;99.90;;;3.25;100.00;98887.59;4818967;29;20052;-75
2022/11/17 05:14:28;;;;;;;18.83;10.35;;;5.00;99.90;;;3.24;100.00;98900.28;4823344;29;20038;-77
2022/11/17 05:17:09;;;;;;;18.27;10.15;;;5.00;99.90;;;3.23;100.00;98898.63;4819324;29;20046;-75
2022/11/17 05:19:44;;;;;;;16.20;10.13;;;5.00;99.90;;;3.23;100.00;98889.69;4819256;29;20499;-76
2022/11/17 05:25:03;;;;;;;16.85;9.73;;;4.90;99.90;;;3.19;100.00;98896.53;4819594;29;20066;-75
2022/11/17 05:27:29;;;;;;;;;;;4.90;99.90;;;3.16;100.00;98893.25;4822253;29;20034;-75
2022/11/17 05:29:55;;;;;;;15.13;9.73;;;4.90;99.90;;;3.15;100.00;98891.59;4824427;29;20024;-76
2022/11/17 05:32:20;;;;;;;18.58;9.77;;;4.90;99.90;;;3.11;100.00;98884.13;4836190;29;20038;-76
2022/11/17 05:34:47;;;;;;;17.13;10.00;;;4.90;99.90;;;3.10;100.00;98888.69;4821794;29;20043;-75
2022/11/17 05:37:12;;;;;;;18.92;10.98;;;4.90;99.90;;;3.10;100.00;98882.47;4821954;29;20068;-75
2022/11/17 05:39:38;;;;;;;17.55;9.82;;;4.90;99.90;;;3.12;100.00;98877.69;4821536;29;20034;-76
2022/11/17 05:42:04;;;;;;;16.85;10.23;;;4.90;99.90;;;3.10;100.00;98891.41;4820020;29;20042;-75
2022/11/17 05:44:30;;;;;;;18.08;10.13;;;4.80;99.90;;;3.10;100.00;98883.31;4819930;29;20038;-76
2022/11/17 05:46:55;;;;;;;17.45;10.60;;;4.90;99.90;;;3.10;100.00;98888.69;4821744;29;20049;-76
2022/11/17 05:49:21;;;;;;;18.63;11.20;;;4.90;99.90;;;3.11;100.00;98897.59;4822107;29;20534;-79
2022/11/17 05:51:47;;;;;;;18.15;11.27;;;4.90;99.90;;;3.09;100.00;98887.03;4827825;29;20056;-76
2022/11/17 05:54:12;;;;;;;23.60;10.60;;;4.90;99.90;;;3.09;100.00;98896.97;4821639;29;20038;-79
2022/11/17 05:57:03;;;;;;;20.70;10.43;;;4.90;99.90;;;3.08;100.00;98884.53;4821580;29;20042;-76
2022/11/17 05:59:44;;;;;;;20.75;10.98;;;4.90;99.90;;;3.04;100.00;98870.66;4823626;29;20030;-77
2022/11/17 06:02:24;;;;;;;16.08;10.05;;;4.80;99.90;;;3.04;100.00;98864.47;4823093;29;20034;-76
2022/11/17 06:04:50;;;;;;;16.95;10.98;;;4.80;99.90;;;3.02;100.00;98864.66;4821661;29;20099;-77
2022/11/17 06:07:18;;;;;;;18.10;10.93;;;4.80;99.90;;;2.95;100.00;98858.47;4821246;29;20068;-76
2022/11/17 06:09:45;;;;;;;18.58;10.75;;;4.70;99.90;;;2.95;100.00;98871.94;4821476;29;20390;-77
2022/11/17 06:12:11;;;;;;;19.93;11.40;;;4.70;99.90;;;2.94;100.00;98865.72;4821523;29;20103;-77
2022/11/17 06:14:38;;;;;;;21.13;11.18;;;4.70;99.90;;;2.93;100.00;98858.69;4821256;29;20612;-76
2022/11/17 06:17:36;;;;;;;22.90;11.77;;;4.70;99.90;;;2.90;100.00;98863.66;4822731;29;20038;-75
2022/11/17 06:20:33;;;;;;;20.70;10.88;;;4.70;99.90;;;2.89;100.00;98857.44;4825371;29;20217;-76
2022/11/17 06:23:04;;;;;;;22.23;13.27;;;4.70;99.90;;;2.78;100.00;98844.63;4819716;29;20053;-75
2022/11/17 06:25:34;;;;;;;23.42;12.38;;;4.60;99.90;;;2.82;100.00;98837.78;4818586;29;20512;-78
2022/11/17 06:28:05;;;;;;;25.60;14.73;;;4.60;99.90;;;2.87;100.00;98848.72;4820251;29;20042;-77
2022/11/17 06:30:33;;;;;;;22.17;13.00;;;4.60;99.90;;;2.84;100.00;98858.09;4819851;29;20115;-77
2022/11/17 06:32:59;;;;;;;23.73;13.38;;;4.60;99.90;;;2.81;100.00;98853.13;4820055;29;20401;-77
2022/11/17 06:35:27;;;;;;;26.92;13.85;;;4.60;99.90;;;2.80;100.00;98851.47;4819886;29;20042;-78
2022/11/17 06:37:53;;;;;;;28.30;13.95;;;4.60;99.90;;;2.80;100.00;98839.84;4818815;29;20387;-78
2022/11/17 06:40:19;;;;;;;22.65;12.88;;;4.60;99.90;;;2.81;100.00;98846.88;4818859;29;20170;-77
2022/11/17 06:43:05;;;;;;;26.27;14.50;;;4.60;99.90;;;2.78;100.00;98831.16;4820032;29;20034;-79
2022/11/17 06:45:45;;;;;;;27.38;14.25;;;4.50;99.90;;;2.77;100.00;98832.19;4820258;29;20042;-76
2022/11/17 06:48:14;;;;;;;28.10;15.10;;;4.60;99.90;;;2.76;100.00;98838.63;4820155;29;20543;-79
2022/11/17 06:50:41;;;;;;;30.80;16.92;;;4.50;99.90;;;2.66;100.00;98825.56;4819823;29;20562;-76
2022/11/17 06:53:09;;;;;;;31.92;15.02;;;4.50;99.90;;;2.68;100.00;98828.88;4819742;29;20059;-77
2022/11/17 06:55:35;;;;;;;31.58;16.15;;;4.50;99.90;;;2.62;100.00;98827.03;4819800;29;20042;-76
2022/11/17 06:58:05;;;;;;;31.50;15.30;;;4.40;99.90;;;2.56;100.00;98837.63;4819845;29;20076;-76
2022/11/17 07:00:33;;;;;;;35.10;17.23;;;4.40;99.90;;;2.53;100.00;98823.72;4830733;29;20058;-77
2022/11/17 07:03:06;;;;;;;37.22;16.88;;;4.30;99.90;;;2.51;100.00;98836.56;4819744;29;20091;-78
2022/11/17 07:05:34;;;;;;;37.20;17.77;;;4.30;99.90;;;2.45;100.00;98816.69;4825485;29;20042;-78
2022/11/17 07:08:04;;;;;;;38.78;16.88;;;4.20;99.90;;;2.41;100.00;98810.06;4819927;29;20034;-79
2022/11/17 07:10:32;;;;;;;35.10;16.30;;;4.20;99.90;;;2.39;100.00;98814.84;4819506;29;20049;-78
2022/11/17 07:12:58;;;;;;;40.35;18.55;;;4.20;99.90;;;2.38;100.00;98815.88;4819428;29;20035;-77
2022/11/17 07:15:25;;;;;;;38.08;17.83;;;4.20;99.90;;;2.37;100.00;98809.66;4820178;29;20042;-76
2022/11/17 07:17:51;;;;;;;37.47;17.48;;;4.10;99.90;;;2.36;100.00;98810.69;4819290;29;20037;-78
2022/11/17 07:20:17;;;;;;;37.20;17.00;;;4.10;99.90;;;2.35;100.00;98816.28;4824089;29;20398;-77
2022/11/17 07:22:43;;;;;;;40.47;18.20;;;4.20;99.90;;;2.33;100.00;98811.09;4825802;29;20102;-77
2022/11/17 07:25:11;;;;;;;36.40;16.15;;;4.10;99.90;;;2.32;100.00;98806.75;4819820;29;20549;-77
2022/11/17 07:27:37;;;;;;;40.83;17.55;;;4.10;99.90;;;2.29;100.00;98796.41;4819705;29;20061;-78
2022/11/17 07:30:05;;;;;;;44.30;18.65;;;4.10;99.90;;;2.29;100.00;98799.09;4819605;29;20050;-77
2022/11/17 07:32:34;;;;;;;38.58;18.05;;;4.10;99.90;;;2.30;100.00;98798.91;4819167;29;20034;-79
2022/11/17 07:35:04;;;;;;;39.28;17.15;;;4.10;99.90;;;2.27;100.00;98803.88;4819123;29;20241;-77
2022/11/17 07:37:34;;;;;;;43.30;18.58;;;4.10;99.90;;;2.27;100.00;98798.50;4819703;29;20223;-78
2022/11/17 07:40:00;;;;;;;38.40;16.08;;;4.00;99.90;;;2.26;100.00;98812.97;4823617;29;20129;-78
2022/11/17 07:42:26;;;;;;;37.30;16.45;;;4.00;99.90;;;2.17;100.00;98792.72;4820159;29;20109;-78
2022/11/17 07:44:53;;;;;;;38.65;16.88;;;4.00;99.90;;;2.21;100.00;98792.06;4819851;29;20030;-78
2022/11/17 07:47:19;;;;;;;39.60;17.00;;;4.00;99.90;;;2.19;100.00;98799.53;4824726;29;20038;-78
2022/11/17 07:49:44;;;;;;;36.60;15.95;;;4.00;99.90;;;2.15;100.00;98784.84;4821948;29;20140;-76
2022/11/17 07:52:10;;;;;;;42.42;17.30;;;4.00;99.90;;;2.15;100.00;98791.06;4822057;29;20050;-78
2022/11/17 07:54:36;;;;;;;39.45;16.15;;;4.00;99.90;;;2.15;100.00;98788.38;4820047;29;20022;-78
2022/11/17 07:57:01;;;;;;;38.78;16.60;;;4.00;99.90;;;2.15;100.00;98777.59;4820320;29;20505;-79
2022/11/17 07:59:27;;;;;;;38.30;15.43;;;3.90;99.90;;;2.13;100.00;98777.00;4820130;29;20094;-79
2022/11/17 08:01:53;;;;;;;42.53;16.85;;;3.90;99.90;;;2.14;100.00;98773.25;4820663;29;20042;-79
2022/11/17 08:04:19;;;;;;;38.63;15.70;;;3.90;99.90;;;2.10;100.00;98773.88;4821091;29;20042;-80
2022/11/17 08:06:44;;;;;;;39.35;15.80;;;3.90;99.90;;;2.13;100.00;98776.16;4822429;29;20026;-80
2022/11/17 08:09:13;;;;;;;39.90;16.35;;;3.90;99.90;;;2.11;100.00;98756.69;4822265;29;20038;-79
2022/11/17 08:11:39;;;;;;;34.15;15.50;;;3.90;99.90;;;2.12;100.00;98751.13;4833784;29;20143;-79
2022/11/17 08:14:05;;;;;;;40.80;16.73;;;3.90;99.90;;;2.12;100.00;98751.13;4820519;29;20498;-80
2022/11/17 08:16:31;;;;;;;37.15;15.48;;;3.90;99.90;;;2.14;100.00;98735.59;4824257;29;20033;-79
2022/11/17 08:18:57;;;;;;;38.13;15.38;;;3.90;99.90;;;2.12;100.00;98718.84;4823975;29;20050;-79
2022/11/17 08:21:23;;;;;;;38.80;15.15;;;3.90;99.90;;;2.12;100.00;98724.22;4826140;29;20110;-79
2022/11/17 08:23:51;;;;;;;39.13;15.57;;;3.90;99.90;;;2.12;100.00;98716.16;4820636;29;20079;-78
2022/11/17 08:26:19;;;;;;;;;;;3.90;99.90;;;2.11;100.00;98714.47;4820928;29;20782;-79
2022/11/17 08:28:47;;;;;;;34.33;14.82;;;3.90;99.90;;;2.12;100.00;98705.38;4821045;29;19924;-78
2022/11/17 08:31:13;;;;;;;38.97;15.50;;;3.90;99.90;;;2.14;100.00;98711.38;4820648;29;20037;-81
2022/11/17 08:33:39;;;;;;;37.40;16.13;;;3.90;99.90;;;2.08;100.00;98709.50;4820216;29;20057;-79
2022/11/17 08:36:08;;;;;;;35.40;14.82;;;3.90;99.90;;;2.15;100.00;98699.56;4819536;29;20130;-80
2022/11/17 08:38:34;;;;;;;38.90;14.98;;;3.90;99.90;;;2.14;100.00;98699.78;4820684;29;20027;-79
2022/11/17 08:41:06;;;;;;;34.65;14.80;;;3.90;99.90;;;2.15;100.00;98704.13;4820223;29;20449;-79
2022/11/17 08:43:34;;;;;;;32.72;14.63;;;3.90;99.90;;;2.12;100.00;98683.00;4820087;29;20154;-77
2022/11/17 08:46:01;;;;;;;35.15;14.13;;;3.90;99.90;;;2.09;100.00;98678.88;4819556;29;20054;-78
2022/11/17 08:48:28;;;;;;;35.65;13.82;;;3.90;99.90;;;2.12;100.00;98689.25;4819375;29;20035;-78
2022/11/17 08:50:54;;;;;;;32.53;12.98;;;3.90;99.90;;;2.16;100.00;98692.31;4819524;29;20050;-77
2022/11/17 08:53:22;;;;;;;33.00;13.82;;;4.00;99.90;;;2.14;100.00;98692.53;4818694;29;20042;-79
2022/11/17 08:55:49;;;;;;;30.90;13.38;;;3.90;99.90;;;2.11;100.00;98682.19;4819233;29;20034;-78
2022/11/17 08:58:15;;;;;;;35.53;13.68;;;4.00;99.90;;;2.18;100.00;98692.94;4818811;29;20102;-78
2022/11/17 09:00:41;;;;;;;31.33;11.80;;;4.00;99.90;;;2.21;100.00;98705.16;4818246;29;20042;-77
2022/11/17 09:03:09;;;;;;;26.75;12.07;;;4.00;99.90;;;2.23;100.00;98698.50;4822375;29;20125;-79
2022/11/17 09:05:42;;;;;;;27.80;12.95;;;4.00;99.90;;;2.23;100.00;98701.19;4818204;29;20600;-80
2022/11/17 09:08:09;;;;;;;33.10;12.50;;;4.00;99.90;;;2.22;100.00;98698.72;4818286;29;20038;-80
2022/11/17 09:10:38;;;;;;;26.73;11.77;;;4.00;99.90;;;2.25;100.00;98706.38;4823761;29;20547;-77
2022/11/17 09:13:04;;;;;;;27.13;11.90;;;4.10;99.90;;;2.26;100.00;98698.13;4818229;29;20041;-79
2022/11/17 09:15:31;;;;;;;24.30;11.50;;;4.10;99.90;;;2.26;100.00;98691.88;4821807;29;20042;-77
2022/11/17 09:17:57;;;;;;;21.70;11.13;;;4.10;99.90;;;2.23;100.00;98689.63;4821182;29;20035;-78
2022/11/17 09:20:23;;;;;;;28.27;10.95;;;4.10;99.90;;;2.29;100.00;98705.75;4819929;29;20035;-78
2022/11/17 09:22:49;;;;;;;24.33;10.90;;;4.10;99.90;;;2.30;100.00;98693.13;4818307;29;20501;-76
2022/11/17 09:25:15;;;;;;;24.35;10.75;;;4.10;99.90;;;2.25;100.00;98699.13;4832991;29;20030;-78
2022/11/17 09:27:41;;;;;;;23.60;11.13;;;4.10;99.90;;;2.19;100.00;98694.59;4819153;29;20557;-77
2022/11/17 09:30:08;;;;;;;19.80;10.02;;;4.10;99.90;;;2.27;100.00;98705.16;4818624;29;20060;-77
2022/11/17 09:32:36;;;;;;;19.60;10.38;;;4.10;99.90;;;2.30;100.00;98704.72;4818195;29;20538;-79
2022/11/17 09:35:05;;;;;;;23.20;10.60;;;4.10;99.90;;;2.30;100.00;98715.50;4818023;29;20050;-78
2022/11/17 09:37:31;;;;;;;22.73;10.48;;;4.10;99.90;;;2.32;100.00;98722.53;4817529;29;20030;-79
2022/11/17 09:39:57;;;;;;;20.20;10.90;;;4.10;99.90;;;2.31;100.00;98724.38;4817795;29;20050;-77
2022/11/17 09:42:23;;;;;;;20.75;9.93;;;4.10;99.90;;;2.28;100.00;98724.78;4817907;29;20486;-78
2022/11/17 09:45:03;;;;;;;19.77;10.40;;;4.10;99.90;;;2.32;100.00;98726.03;4817334;29;20031;-77
2022/11/17 09:47:42;;;;;;;18.77;9.98;;;4.10;99.90;;;2.31;100.00;98727.06;4818097;29;20375;-79
2022/11/17 09:50:30;;;;;;;19.30;9.95;;;4.10;99.90;;;2.34;100.00;98737.41;4817880;29;20038;-77
2022/11/17 09:53:13;;;;;;;21.05;10.25;;;4.10;99.90;;;2.34;100.00;98734.72;4820972;29;20045;-76
2022/11/17 09:55:52;;;;;;;18.45;10.57;;;4.10;99.90;;;2.35;100.00;98735.56;4817740;29;20031;-77
2022/11/17 09:58:40;;;;;;;20.08;9.90;;;4.10;99.90;;;2.40;100.00;98736.59;4818213;29;20050;-77
2022/11/17 10:01:12;;;;;;;18.97;9.97;;;4.20;99.90;;;2.38;100.00;98719.78;4817929;29;20035;-77
2022/11/17 10:03:40;;;;;;;18.70;10.25;;;4.20;99.90;;;2.42;100.00;98734.50;4817617;29;20034;-75
2022/11/17 10:06:15;;;;;;;17.42;9.60;;;4.20;99.90;;;2.48;100.00;98732.81;4817645;29;20065;-77
2022/11/17 10:08:59;;;;;;;16.35;9.02;;;4.20;99.90;;;2.50;100.00;98727.25;4817888;29;20038;-77
2022/11/17 10:11:33;;;;;;;18.23;9.98;;;4.30;99.90;;;2.54;100.00;98739.22;4819393;29;20034;-77
2022/11/17 10:14:13;;;;;;;19.02;9.57;;;4.30;99.90;;;2.50;100.00;98724.53;4821013;29;20144;-76
2022/11/17 10:16:52;;;;;;;15.52;9.48;;;4.40;99.90;;;2.62;100.00;98733.59;4821358;29;20495;-76
2022/11/17 10:19:23;;;;;;;15.68;8.73;;;4.40;99.90;;;2.68;100.00;98754.31;4820796;29;20046;-75
2022/11/17 10:22:02;;;;;;;15.18;8.45;;;4.40;99.90;;;2.72;100.00;98747.47;4820422;29;20402;-76
2022/11/17 10:24:49;;;;;;;16.02;8.65;;;4.50;99.90;;;2.72;100.00;98752.88;4826054;29;20045;-76
2022/11/17 10:27:33;;;;;;;17.88;8.50;;;4.50;99.90;;;2.75;100.00;98750.78;4820628;29;20022;-77
2022/11/17 10:30:12;;;;;;;15.88;9.35;;;4.50;99.90;;;2.76;100.00;98763.22;4820333;29;20080;-77
2022/11/17 10:32:53;;;;;;;14.38;8.27;;;4.50;99.90;;;2.74;100.00;98755.31;4820819;29;20042;-78
2022/11/17 10:35:24;;;;;;;16.52;8.77;;;4.50;99.90;;;2.77;100.00;98743.31;4820176;29;20050;-77
2022/11/17 10:37:56;;;;;;;16.33;8.70;;;4.50;99.90;;;2.78;100.00;98729.63;4820268;29;20110;-77
2022/11/17 10:40:28;;;;;;;16.10;8.57;;;4.50;99.90;;;2.78;100.00;98728.81;4820342;29;20117;-78
2022/11/17 10:43:03;;;;;;;15.57;8.90;;;4.50;99.90;;;2.77;100.00;98724.47;4820151;29;20455;-77
2022/11/17 10:45:29;;;;;;;18.08;9.13;;;4.50;99.90;;;2.78;100.00;98715.34;4820578;29;20285;-79
2022/11/17 10:48:27;;;;;;;16.05;8.88;;;4.50;99.90;;;2.84;100.00;98707.25;4823460;29;20038;-78
2022/11/17 10:50:59;;;;;;;16.33;8.40;;;4.60;99.90;;;2.81;100.00;98712.22;4821022;29;20045;-79
2022/11/17 10:53:30;;;;;;;14.68;7.90;;;4.60;99.90;;;2.83;100.00;98699.38;4820941;29;20359;-77
2022/11/17 10:56:03;;;;;;;14.30;8.10;;;4.60;99.90;;;2.88;100.00;98696.84;4822198;29;20097;-77
2022/11/17 10:58:32;;;;;;;15.20;8.45;;;4.60;99.90;;;2.87;100.00;98704.13;4829924;29;20122;-78
2022/11/17 11:01:02;;;;;;;15.73;8.50;;;4.70;99.90;;;2.87;100.00;98674.50;4820667;29;20539;-76
2022/11/17 11:03:33;;;;;;;17.23;8.25;;;4.70;99.90;;;2.88;100.00;98691.47;4820007;29;22317;-77